Time;durP1;ratioP1;P1;durP2;ratioP2;P2;SDS_P1;SDS_P2;PMS_P1;PMS_P2;Temp;Humidity;BMP_temperature;BMP_pressure;BME280_temperature;BME280_humidity;BME280_pressure;Samples;Min_cycle;Max_cycle;Signal;HPM_P1;HPM_P2
2023/06/02 00:07:41;;;;;;;6.63;1.90;;;11.50;99.30;;;;;;10080635;29;20237;-78
2023/06/02 00:13:02;;;;;;;7.73;2.47;;;11.50;97.40;;;;;;10031528;29;20444;-80
2023/06/02 00:18:25;;;;;;;4.90;1.70;;;11.30;98.70;;;;;;10042363;29;20205;-80
2023/06/02 00:23:47;;;;;;;6.67;1.77;;;11.30;98.60;;;;;;10070900;29;20238;-80
2023/06/02 00:29:08;;;;;;;4.90;1.90;;;11.30;98.30;;;;;;10051977;29;20207;-79
2023/06/02 00:41:57;;;;;;;4.87;1.63;;;11.20;99.40;;;;;;10043908;29;20218;-79
2023/06/02 00:53:57;;;;;;;5.53;1.87;;;11.40;98.40;;;;;;10061651;29;20209;-78
2023/06/02 00:59:22;;;;;;;6.87;1.40;;;11.20;99.30;;;;;;10066644;29;20276;-80
2023/06/02 01:04:46;;;;;;;3.70;1.40;;;11.10;99.40;;;;;;10029369;29;20566;-79
2023/06/02 01:10:08;;;;;;;7.83;2.23;;;11.00;99.90;;;;;;10044274;29;20208;-79
2023/06/02 01:15:55;;;;;;;7.07;2.03;;;11.10;98.90;;;;;;10031180;29;20206;-78
2023/06/02 01:21:26;;;;;;;4.23;1.63;;;11.10;99.60;;;;;;10034308;29;20305;-79
2023/06/02 01:26:47;;;;;;;3.80;1.37;;;11.10;98.50;;;;;;10078586;29;20232;-80
2023/06/02 01:32:20;;;;;;;4.90;1.30;;;11.20;99.20;;;;;;10065820;29;20296;-80
2023/06/02 01:37:50;;;;;;;3.27;1.40;;;11.20;99.40;;;;;;10093407;29;20213;-80
2023/06/02 01:43:12;;;;;;;5.90;1.80;;;11.10;98.00;;;;;;10083660;29;20216;-78
2023/06/02 01:48:34;;;;;;;7.70;2.17;;;11.10;99.30;;;;;;10070879;29;20252;-79
2023/06/02 02:04:35;;;;;;;5.67;1.93;;;11.00;99.30;;;;;;10026722;29;20540;-79
2023/06/02 02:16:44;;;;;;;4.60;1.83;;;10.90;99.90;;;;;;10046024;29;20198;-80
2023/06/02 02:22:05;;;;;;;3.03;1.20;;;10.90;99.90;;;;;;10046674;29;20243;-79
2023/06/02 02:27:27;;;;;;;4.90;1.67;;;10.80;99.40;;;;;;10033106;29;20254;-80
2023/06/02 02:32:48;;;;;;;2.87;1.30;;;10.70;99.90;;;;;;10027976;29;20198;-80
2023/06/02 03:04:51;;;;;;;6.43;1.40;;;10.60;99.90;;;;;;10044923;29;20261;-80
2023/06/02 03:12:13;;;;;;;2.97;1.37;;;10.50;99.90;;;;;;9998216;29;20434;-79
2023/06/02 03:17:55;;;;;;;3.83;1.20;;;10.50;99.90;;;;;;9966378;29;20212;-78
2023/06/02 03:23:17;;;;;;;4.13;1.40;;;10.60;99.60;;;;;;9942925;29;20243;-79
2023/06/02 03:28:41;;;;;;;3.80;1.70;;;10.50;98.40;;;;;;9942485;29;20322;-79
2023/06/02 03:34:05;;;;;;;8.37;3.43;;;10.60;98.20;;;;;;9942782;29;20215;-78
2023/06/02 03:39:28;;;;;;;7.37;3.47;;;10.70;97.60;;;;;;9987190;29;20292;-80
2023/06/02 03:44:49;;;;;;;9.80;5.03;;;10.70;96.90;;;;;;10044580;29;20236;-78
2023/06/02 03:50:11;;;;;;;9.37;3.17;;;10.60;97.70;;;;;;10061301;29;20241;-78
2023/06/02 03:55:33;;;;;;;3.63;1.50;;;10.70;97.80;;;;;;10053075;29;20312;-79
2023/06/02 04:00:55;;;;;;;4.27;1.97;;;10.80;96.40;;;;;;10030048;29;20218;-79
2023/06/02 04:06:16;;;;;;;6.10;2.00;;;10.80;95.90;;;;;;10030145;29;20245;-78
2023/06/02 04:11:39;;;;;;;5.07;1.50;;;10.80;94.80;;;;;;10021979;29;20210;-79
2023/06/02 04:17:01;;;;;;;4.23;1.40;;;10.80;95.50;;;;;;10045149;29;20215;-79
2023/06/02 04:22:22;;;;;;;7.67;1.43;;;10.90;96.10;;;;;;10028921;29;20323;-79
2023/06/02 04:27:43;;;;;;;3.83;1.80;;;11.00;94.80;;;;;;10031886;29;21186;-79
2023/06/02 04:33:06;;;;;;;5.70;2.50;;;11.10;92.50;;;;;;10032673;29;20206;-79
2023/06/02 04:38:28;;;;;;;4.37;1.63;;;11.00;93.50;;;;;;10078516;29;20210;-80
2023/06/02 04:43:51;;;;;;;6.63;1.70;;;10.80;93.10;;;;;;10066241;29;20208;-78
2023/06/02 04:49:13;;;;;;;4.03;1.83;;;11.00;92.90;;;;;;10047162;29;20470;-78
2023/06/02 04:54:35;;;;;;;2.67;1.20;;;11.30;89.60;;;;;;10064133;29;20229;-80
2023/06/02 04:59:57;;;;;;;4.10;1.80;;;11.30;86.10;;;;;;10048974;29;20951;-79
2023/06/02 05:05:18;;;;;;;3.23;1.40;;;11.20;77.70;;;;;;10079207;29;20365;-79
2023/06/02 05:10:40;;;;;;;3.10;1.83;;;11.40;83.00;;;;;;10048067;29;20246;-78
2023/06/02 05:16:02;;;;;;;3.30;1.53;;;11.50;81.90;;;;;;10066051;29;20263;-80
2023/06/02 05:21:24;;;;;;;2.37;1.50;;;11.50;69.60;;;;;;10018644;29;20261;-79
2023/06/02 05:26:46;;;;;;;5.10;1.43;;;11.60;66.40;;;;;;10041850;29;20411;-79
2023/06/02 05:32:08;;;;;;;5.47;1.63;;;11.60;65.60;;;;;;10029963;29;20207;-78
2023/06/02 05:37:31;;;;;;;2.90;1.10;;;11.50;59.10;;;;;;10035032;29;20213;-79
2023/06/02 05:42:53;;;;;;;6.00;1.60;;;11.50;58.80;;;;;;10077607;29;20257;-79
2023/06/02 05:48:14;;;;;;;3.60;1.10;;;11.80;54.00;;;;;;10055231;29;20317;-78
2023/06/02 05:53:35;;;;;;;4.23;1.40;;;11.90;45.40;;;;;;10062316;29;20231;-78
2023/06/02 05:58:56;;;;;;;3.77;1.20;;;11.90;46.30;;;;;;10043894;29;20213;-79
2023/06/02 06:04:18;;;;;;;4.78;1.83;;;12.20;43.50;;;;;;10047159;29;20228;-79
2023/06/02 06:09:40;;;;;;;4.87;1.47;;;12.20;33.90;;;;;;10036904;29;20262;-79
2023/06/02 06:15:02;;;;;;;7.65;1.65;;;12.40;31.50;;;;;;10020637;29;20210;-79
2023/06/02 06:20:24;;;;;;;10.27;3.83;;;12.60;28.00;;;;;;10054220;29;20230;-79
2023/06/02 06:25:46;;;;;;;2.78;1.20;;;12.80;25.40;;;;;;10019931;29;20254;-79
2023/06/02 06:31:09;;;;;;;6.05;1.42;;;13.10;23.10;;;;;;10032820;29;20213;-80
2023/06/02 06:36:30;;;;;;;5.78;2.00;;;13.50;22.00;;;;;;10055833;29;20273;-78
2023/06/02 06:41:52;;;;;;;3.15;2.60;;;14.20;19.40;;;;;;10053725;29;20215;-80
2023/06/02 06:47:29;;;;;;;2.67;1.88;;;14.60;15.20;;;;;;10046545;29;20271;-80
2023/06/02 06:52:51;;;;;;;13.43;5.30;;;15.20;11.70;;;;;;10069578;29;20451;-79
2023/06/02 06:58:13;;;;;;;13.13;5.20;;;15.20;8.90;;;;;;10045499;29;20276;-80
2023/06/02 07:03:34;;;;;;;9.30;4.10;;;15.50;8.20;;;;;;10030800;29;20209;-79
2023/06/02 07:08:55;;;;;;;8.38;1.80;;;15.90;7.80;;;;;;10034608;29;20245;-80
2023/06/02 07:14:17;;;;;;;20.45;8.63;;;16.70;7.30;;;;;;10046531;29;20242;-79
2023/06/02 07:19:39;;;;;;;14.63;6.15;;;17.10;6.20;;;;;;10036811;29;20247;-80
2023/06/02 07:25:00;;;;;;;19.60;8.45;;;17.50;99.90;;;;;;10046151;29;20258;-79
2023/06/02 07:30:21;;;;;;;5.35;1.90;;;17.40;99.90;;;;;;10052061;29;20312;-78
2023/06/02 07:35:43;;;;;;;18.33;8.38;;;17.80;99.90;;;;;;10077567;29;20218;-79
2023/06/02 07:41:04;;;;;;;13.50;6.47;;;17.90;99.90;;;;;;10045856;29;20511;-79
2023/06/02 07:46:25;;;;;;;21.52;10.60;;;18.20;99.90;;;;;;10063397;29;20245;-80
2023/06/02 07:51:47;;;;;;;5.95;1.30;;;18.30;99.90;;;;;;10044241;29;20398;-79
2023/06/02 07:57:08;;;;;;;16.65;7.65;;;18.70;99.90;;;;;;10076545;29;20206;-78
2023/06/02 08:02:29;;;;;;;11.02;5.63;;;18.80;99.90;;;;;;10070785;29;20290;-78
2023/06/02 08:07:51;;;;;;;27.17;11.73;;;18.90;99.90;;;;;;10037832;29;20295;-79
2023/06/02 08:13:12;;;;;;;10.68;4.88;;;18.90;99.90;;;;;;10075534;29;20210;-79
2023/06/02 08:18:33;;;;;;;2.92;1.52;;;19.00;99.90;;;;;;10091643;29;20265;-80
2023/06/02 08:23:55;;;;;;;3.38;1.00;;;19.50;99.90;;;;;;10053631;29;20265;-80
2023/06/02 08:29:16;;;;;;;6.57;1.83;;;19.80;99.90;;;;;;10038007;29;20230;-81
2023/06/02 08:34:41;;;;;;;3.42;0.98;;;19.60;99.90;;;;;;10053821;29;20467;-79
2023/06/02 08:40:04;;;;;;;2.40;0.77;;;;;;;;;;10075033;29;20250;-80
2023/06/02 08:45:26;;;;;;;2.33;0.50;;;20.50;99.90;;;;;;10071331;29;20260;-81
2023/06/02 08:50:51;;;;;;;1.63;0.80;;;20.20;99.90;;;;;;10074696;29;20397;-80
2023/06/02 08:56:14;;;;;;;2.90;1.00;;;20.40;99.90;;;;;;10033533;29;20267;-82
2023/06/02 09:01:35;;;;;;;1.75;0.77;;;20.70;99.90;;;;;;10035610;29;20195;-79
2023/06/02 09:07:12;;;;;;;0.73;0.52;;;20.90;99.90;;;;;;10031541;29;20309;-82
2023/06/02 09:12:48;;;;;;;4.53;0.88;;;21.00;99.90;;;;;;10084237;29;20499;-81
2023/06/02 09:18:11;;;;;;;12.52;4.70;;;21.20;99.90;;;;;;10075838;29;20436;-81
2023/06/02 09:23:45;;;;;;;1.80;0.90;;;21.10;99.90;;;;;;10087048;29;20245;-80
2023/06/02 09:29:12;;;;;;;4.30;1.00;;;21.70;99.90;;;;;;10035400;29;20786;-81
2023/06/02 09:34:38;;;;;;;8.85;4.60;;;22.10;99.90;;;;;;10038628;29;20225;-84
2023/06/02 09:40:06;;;;;;;1.27;1.05;;;22.30;99.90;;;;;;10035547;29;20203;-84
2023/06/02 09:45:27;;;;;;;11.32;4.15;;;22.30;99.90;;;;;;10071876;29;20267;-86
2023/06/02 09:50:49;;;;;;;4.70;2.33;;;22.90;99.90;;;;;;10058797;29;20285;-81
2023/06/02 09:56:10;;;;;;;12.60;5.40;;;22.60;99.90;;;;;;10069516;29;20269;-81
2023/06/02 10:01:33;;;;;;;7.22;4.25;;;22.20;99.90;;;;;;10062748;29;20221;-82
2023/06/02 10:07:08;;;;;;;2.13;1.02;;;22.20;99.90;;;;;;10034957;29;20235;-82
2023/06/02 10:13:03;;;;;;;2.00;1.02;;;22.40;99.90;;;;;;10049984;29;20219;-82
2023/06/02 10:18:43;;;;;;;2.47;1.08;;;22.20;99.90;;;;;;10054841;29;20313;-82
2023/06/02 10:24:30;;;;;;;5.18;1.10;;;22.50;99.90;;;;;;10044459;29;20255;-83
2023/06/02 10:29:53;;;;;;;7.00;2.50;;;22.00;99.90;;;;;;10021790;29;20219;-81
2023/06/02 10:35:15;;;;;;;4.78;0.88;;;21.30;99.90;;;;;;10023833;29;20267;-86
2023/06/02 10:40:50;;;;;;;4.90;1.00;;;21.10;99.90;;;;;;10029750;29;20431;-80
2023/06/02 10:46:21;;;;;;;3.50;1.00;;;21.00;99.90;;;;;;10047201;29;20341;-84
2023/06/02 10:52:07;;;;;;;2.58;0.90;;;21.50;99.90;;;;;;10041507;29;20215;-82
2023/06/02 10:57:53;;;;;;;4.95;0.95;;;21.20;99.90;;;;;;10050264;29;20214;-82
2023/06/02 11:03:17;;;;;;;7.05;3.05;;;22.00;99.90;;;;;;10034764;29;20490;-82
2023/06/02 11:08:39;;;;;;;4.50;1.08;;;21.20;99.90;;;;;;10023774;29;20470;-82
2023/06/02 11:14:00;;;;;;;21.33;7.15;;;21.40;99.90;;;;;;10062538;29;20396;-83
2023/06/02 11:19:51;;;;;;;19.40;8.75;;;20.50;99.90;;;;;;10035188;29;20537;-83
2023/06/02 11:25:15;;;;;;;12.43;5.30;;;20.80;99.90;;;;;;10037125;29;20217;-82
2023/06/02 11:30:37;;;;;;;12.15;4.88;;;21.40;99.90;;;;;;10070425;29;20327;-83
2023/06/02 11:35:59;;;;;;;15.60;6.57;;;21.30;99.90;;;;;;10077648;29;20218;-82
2023/06/02 11:41:23;;;;;;;19.10;8.13;;;21.10;99.90;;;;;;10066171;29;20298;-83
2023/06/02 11:46:46;;;;;;;3.75;1.55;;;20.70;99.90;;;;;;10024734;29;20487;-83
2023/06/02 11:52:09;;;;;;;10.73;5.63;;;21.00;99.90;;;;;;10056068;29;20803;-79
2023/06/02 11:57:32;;;;;;;6.28;2.20;;;21.10;99.90;;;;;;10076276;29;20199;-82
2023/06/02 12:03:07;;;;;;;15.10;5.13;;;20.00;99.90;;;;;;10058297;29;20205;-82
2023/06/02 12:08:28;;;;;;;3.15;1.50;;;19.60;99.90;;;;;;10075854;29;20242;-82
2023/06/02 12:14:15;;;;;;;1.48;0.90;;;20.20;99.90;;;;;;10057505;29;20207;-82
2023/06/02 12:19:37;;;;;;;3.80;1.13;;;19.80;99.90;;;;;;10069124;29;20282;-82
2023/06/02 12:25:10;;;;;;;3.10;0.90;;;20.60;99.90;;;;;;10060718;29;20211;-80
2023/06/02 12:30:31;;;;;;;2.67;1.00;;;20.00;99.90;;;;;;10041277;29;20274;-80
2023/06/02 12:35:53;;;;;;;2.22;0.90;;;20.00;99.90;;;;;;10074527;29;20235;-82
2023/06/02 12:41:15;;;;;;;1.40;0.63;;;19.90;99.90;;;;;;10072648;29;20249;-81
2023/06/02 12:46:36;;;;;;;5.10;1.00;;;19.30;99.90;;;;;;10075384;29;20226;-79
2023/06/02 12:51:57;;;;;;;6.55;1.67;;;18.90;99.90;;;;;;10070683;29;20198;-83
2023/06/02 12:57:19;;;;;;;2.78;1.02;;;18.50;99.90;;;;;;10026008;29;20202;-80
2023/06/02 13:02:41;;;;;;;10.73;1.58;;;18.70;99.90;;;;;;10072756;29;20289;-80
2023/06/02 13:08:03;;;;;;;5.63;1.05;;;18.40;99.90;;;;;;10076155;29;20226;-82
2023/06/02 13:13:25;;;;;;;1.70;0.80;;;18.80;99.90;;;;;;10058415;29;20206;-80
2023/06/02 13:18:47;;;;;;;3.30;1.35;;;19.30;99.90;;;;;;10057937;29;20249;-77
2023/06/02 13:24:08;;;;;;;12.70;3.10;;;19.10;99.90;;;;;;10069925;29;20302;-80
2023/06/02 13:29:29;;;;;;;6.95;3.13;;;18.60;99.90;;;;;;10073046;29;20229;-82
2023/06/02 13:34:57;;;;;;;4.60;1.60;;;19.00;99.90;;;;;;10040556;29;20477;-81
2023/06/02 13:40:20;;;;;;;4.78;1.05;;;19.10;99.90;;;;;;10059186;29;20233;-78
2023/06/02 13:45:42;;;;;;;4.40;1.10;;;18.90;99.90;;;;;;10066520;29;20221;-83
2023/06/02 13:51:03;;;;;;;8.52;3.25;;;19.10;99.90;;;;;;10049312;29;20215;-90
2023/06/02 13:56:27;;;;;;;6.70;2.05;;;19.40;99.90;;;;;;10070921;29;20285;-82
2023/06/02 14:01:49;;;;;;;2.55;1.55;;;19.00;99.90;;;;;;10057137;29;20305;-79
2023/06/02 14:07:10;;;;;;;4.65;3.13;;;18.40;99.90;;;;;;10073387;29;20532;-80
2023/06/02 14:12:32;;;;;;;14.18;1.33;;;18.10;99.90;;;;;;10051168;29;20453;-80
2023/06/02 14:17:53;;;;;;;1.38;0.80;;;18.40;99.90;;;;;;10067409;29;20235;-81
2023/06/02 14:23:14;;;;;;;2.53;1.23;;;18.60;99.90;;;;;;10069365;29;20269;-80
2023/06/02 14:28:36;;;;;;;2.75;0.80;;;18.90;99.90;;;;;;10064098;29;20299;-80
2023/06/02 14:33:57;;;;;;;2.28;1.52;;;18.70;99.90;;;;;;10061930;29;20199;-81
2023/06/02 14:39:19;;;;;;;3.80;1.42;;;18.70;99.90;;;;;;10070948;29;20237;-80
2023/06/02 14:44:40;;;;;;;3.63;1.60;;;18.40;99.90;;;;;;10061207;29;20225;-81
2023/06/02 14:50:01;;;;;;;10.30;1.10;;;18.00;99.90;;;;;;10078203;29;20382;-81
2023/06/02 14:55:23;;;;;;;2.58;0.90;;;18.10;99.90;;;;;;10060985;29;20438;-80
2023/06/02 15:00:44;;;;;;;1.52;1.10;;;18.00;99.90;;;;;;10065618;29;20233;-81
2023/06/02 15:06:05;;;;;;;2.55;1.55;;;17.70;99.90;;;;;;10062258;29;20241;-84
2023/06/02 15:11:27;;;;;;;3.17;0.93;;;17.60;99.90;;;;;;10084156;29;20199;-81
2023/06/02 15:16:48;;;;;;;5.13;1.48;;;17.50;99.90;;;;;;10043685;29;20242;-79
2023/06/02 15:22:10;;;;;;;2.63;1.02;;;17.60;99.90;;;;;;10080247;29;20604;-81
2023/06/02 15:27:33;;;;;;;3.70;1.20;;;17.60;99.90;;;;;;10052865;29;20472;-84
2023/06/02 15:32:56;;;;;;;2.03;0.82;;;17.70;99.90;;;;;;10067231;29;20197;-80
2023/06/02 15:38:18;;;;;;;2.05;1.30;;;17.50;99.90;;;;;;10062405;29;20251;-77
2023/06/02 15:43:41;;;;;;;5.55;1.50;;;17.40;99.90;;;;;;10081826;29;20205;-76
2023/06/02 15:49:28;;;;;;;1.90;1.00;;;17.20;99.90;;;;;;10044209;29;20243;-79
2023/06/02 15:54:49;;;;;;;2.35;1.33;;;17.00;99.90;;;;;;10064736;29;20224;-78
2023/06/02 16:00:10;;;;;;;3.00;1.20;;;16.90;99.90;;;;;;10029713;29;20210;-78
2023/06/02 16:05:34;;;;;;;1.52;1.02;;;16.80;99.90;;;;;;10070780;29;20209;-78
2023/06/02 16:10:55;;;;;;;1.33;0.90;;;16.90;99.90;;;;;;10080795;29;20201;-77
2023/06/02 16:16:16;;;;;;;4.35;1.73;;;16.60;99.90;;;;;;10078177;29;20208;-77
2023/06/02 16:21:37;;;;;;;5.60;1.42;;;16.40;99.90;;;;;;10071124;29;20257;-78
2023/06/02 16:26:58;;;;;;;11.25;4.43;;;16.30;99.90;;;;;;10060138;29;20239;-77
2023/06/02 16:32:20;;;;;;;4.97;3.30;;;16.20;99.90;;;;;;10076834;29;20299;-77
2023/06/02 16:37:41;;;;;;;4.13;1.60;;;15.90;99.90;;;;;;10041596;29;20447;-76
2023/06/02 16:43:03;;;;;;;5.88;1.92;;;15.70;99.90;;;;;;10048792;29;20218;-78
2023/06/02 16:48:24;;;;;;;3.92;1.60;;;15.60;99.90;;;;;;10079683;29;20471;-76
2023/06/02 16:53:45;;;;;;;2.45;1.60;;;15.70;99.90;;;;;;10072502;29;20383;-78
2023/06/02 16:59:06;;;;;;;1.90;1.10;;;15.70;99.90;;;;;;10041942;29;20268;-79
2023/06/02 17:09:47;;;;;;;3.67;1.60;;;15.20;99.90;;;;;;10040533;29;20240;-77
2023/06/02 17:15:08;;;;;;;3.00;1.35;;;15.20;99.90;;;;;;10062572;29;20209;-78
2023/06/02 17:20:30;;;;;;;3.20;1.10;;;15.30;99.90;;;;;;10079197;29;20243;-77
2023/06/02 17:25:51;;;;;;;1.83;0.85;;;15.30;99.90;;;;;;10047522;29;20375;-77
2023/06/02 17:31:13;;;;;;;5.78;2.15;;;15.10;99.90;;;;;;10041281;29;20420;-78
2023/06/02 17:36:34;;;;;;;3.10;1.42;;;14.90;99.90;;;;;;10036787;29;20454;-76
2023/06/02 17:41:56;;;;;;;3.58;1.92;;;14.80;99.90;;;;;;10029127;29;20253;-77
2023/06/02 17:47:17;;;;;;;3.88;1.90;;;14.80;99.90;;;;;;10048565;29;20233;-76
2023/06/02 17:52:39;;;;;;;1.75;1.05;;;14.50;99.90;;;;;;10054595;29;20246;-77
2023/06/02 17:58:03;;;;;;;4.82;2.10;;;14.20;99.90;;;;;;10075724;29;20220;-77
2023/06/02 18:03:24;;;;;;;3.97;2.47;;;14.10;99.90;;;;;;10079099;29;20203;-76
2023/06/02 18:08:46;;;;;;;3.95;1.98;;;14.00;99.90;;;;;;10050589;29;20353;-76
2023/06/02 18:14:07;;;;;;;4.78;1.55;;;13.90;99.90;;;;;;10073996;29;20206;-77
2023/06/02 18:19:29;;;;;;;1.45;1.17;;;13.70;99.90;;;;;;10068912;29;20310;-77
2023/06/02 18:24:50;;;;;;;5.25;1.42;;;13.70;99.90;;;;;;10066560;29;20301;-78
2023/06/02 18:30:12;;;;;;;2.67;1.13;;;13.50;99.90;;;;;;10084560;29;20254;-76
2023/06/02 18:35:33;;;;;;;2.78;1.42;;;13.40;99.90;;;;;;10066508;29;20204;-77
2023/06/02 18:40:54;;;;;;;4.15;2.17;;;13.20;99.90;;;;;;10045792;29;20258;-75
2023/06/02 18:46:15;;;;;;;4.18;2.00;;;13.20;99.90;;;;;;10079070;29;20206;-77
2023/06/02 18:51:37;;;;;;;3.20;1.90;;;13.10;99.90;;;;;;10083696;29;20259;-78
2023/06/02 18:56:59;;;;;;;2.90;1.70;;;13.00;99.90;;;;;;10047447;29;20217;-77
2023/06/02 19:02:20;;;;;;;6.43;2.15;;;13.00;99.90;;;;;;10047995;29;20210;-76
2023/06/02 19:07:41;;;;;;;5.78;2.00;;;12.90;99.90;;;;;;10045973;29;20232;-78
2023/06/02 19:13:03;;;;;;;3.85;1.85;;;12.80;99.90;;;;;;10048188;29;20217;-78
2023/06/02 19:18:24;;;;;;;5.32;1.58;;;12.70;99.90;;;;;;10081816;29;20216;-76
2023/06/02 19:23:46;;;;;;;3.20;1.60;;;12.60;99.90;;;;;;10082759;29;20236;-76
2023/06/02 19:29:08;;;;;;;5.40;2.47;;;12.50;99.90;;;;;;10044406;29;20238;-77
2023/06/02 19:34:29;;;;;;;5.82;2.42;;;12.40;99.90;;;;;;10034512;29;20215;-76
2023/06/02 19:39:50;;;;;;;5.07;2.70;;;12.30;99.90;;;;;;10045242;29;20210;-76
2023/06/02 19:50:32;;;;;;;2.78;1.70;;;12.10;99.90;;;;;;10043372;29;20230;-77
2023/06/02 19:55:54;;;;;;;2.83;1.67;;;12.00;99.90;;;;;;10059581;29;20441;-77
2023/06/02 20:01:15;;;;;;;6.03;2.25;;;11.80;99.90;;;;;;10082481;29;20490;-78
2023/06/02 20:06:36;;;;;;;8.68;4.35;;;11.80;99.90;;;;;;10057782;29;20219;-77
2023/06/02 20:11:58;;;;;;;13.93;6.32;;;11.80;99.90;;;;;;10045823;29;20196;-77
2023/06/02 20:17:24;;;;;;;15.52;6.95;;;11.90;99.90;;;;;;10061012;29;20217;-77
2023/06/02 20:22:46;;;;;;;12.48;7.05;;;11.90;99.90;;;;;;10075013;29;20242;-77
2023/06/02 20:28:07;;;;;;;15.75;7.97;;;11.80;99.90;;;;;;10080538;29;20523;-77
2023/06/02 20:33:29;;;;;;;13.63;7.18;;;11.60;99.90;;;;;;10076069;29;20516;-77
2023/06/02 20:38:50;;;;;;;14.73;5.83;;;11.60;99.90;;;;;;10078668;29;20216;-77
2023/06/02 20:44:11;;;;;;;8.73;4.20;;;11.50;99.90;;;;;;10079732;29;20215;-78
2023/06/02 20:49:32;;;;;;;8.30;3.93;;;;;;;;;;10078512;29;20599;-77
2023/06/02 20:54:54;;;;;;;9.85;4.97;;;11.30;1.00;;;;;;10080690;29;20195;-78
2023/06/02 21:00:15;;;;;;;10.10;5.78;;;11.20;1.00;;;;;;10053362;29;20260;-76
2023/06/02 21:05:37;;;;;;;9.77;6.38;;;11.20;1.00;;;;;;10042128;29;20393;-76
2023/06/02 21:11:00;;;;;;;12.33;6.30;;;11.20;1.00;;;;;;10044445;29;20306;-77
2023/06/02 21:16:23;;;;;;;10.60;6.40;;;11.10;1.00;;;;;;10051085;29;20209;-76
2023/06/02 21:21:44;;;;;;;9.63;5.73;;;10.90;1.00;;;;;;10040274;29;20261;-76
2023/06/02 21:27:06;;;;;;;12.20;6.23;;;10.80;99.90;;;;;;10064985;29;20213;-76
2023/06/02 21:32:27;;;;;;;10.80;6.23;;;10.70;57.00;;;;;;10041577;29;20544;-76
2023/06/02 21:37:49;;;;;;;11.77;6.27;;;10.70;97.80;;;;;;10048807;29;20216;-77
2023/06/02 21:43:10;;;;;;;11.57;5.80;;;;;;;;;;10079786;29;20208;-77
2023/06/02 21:48:32;;;;;;;13.27;6.97;;;10.60;1.00;;;;;;10076392;29;20270;-77
2023/06/02 21:53:55;;;;;;;10.17;6.97;;;10.60;1.00;;;;;;10074180;29;20216;-77
2023/06/02 21:59:16;;;;;;;15.63;7.87;;;10.50;1.00;;;;;;10077248;29;20201;-77
2023/06/02 22:04:38;;;;;;;20.77;8.43;;;;;;;;;;10076416;29;20208;-77
2023/06/02 22:10:00;;;;;;;21.13;10.30;;;10.40;99.90;;;;;;10078139;29;20234;-77
2023/06/02 22:15:20;;;;;;;19.10;9.33;;;10.30;1.00;;;;;;10075697;29;20218;-77
2023/06/02 22:20:42;;;;;;;16.27;8.30;;;;;;;;;;10053340;29;20432;-77
2023/06/02 22:26:04;;;;;;;15.67;8.10;;;;;;;;;;10062284;29;20206;-78
2023/06/02 22:31:26;;;;;;;14.90;6.63;;;10.00;1.00;;;;;;10045651;29;20236;-77
2023/06/02 22:36:47;;;;;;;10.07;5.10;;;9.90;1.00;;;;;;10082909;29;20244;-78
2023/06/02 22:42:08;;;;;;;11.10;4.27;;;9.90;1.00;;;;;;10084765;29;20197;-79
2023/06/02 22:52:49;;;;;;;7.60;4.53;;;9.90;88.60;;;;;;10045742;29;20347;-75
2023/06/02 22:58:11;;;;;;;13.40;8.87;;;9.80;99.90;;;;;;10071777;29;20239;-78
2023/06/02 23:03:33;;;;;;;14.70;7.87;;;9.80;99.90;;;;;;10083870;29;20200;-78
2023/06/02 23:08:55;;;;;;;9.43;5.77;;;;;;;;;;10050841;29;20535;-76
2023/06/02 23:14:16;;;;;;;7.77;4.67;;;;;;;;;;10046208;29;20218;-76
2023/06/02 23:19:38;;;;;;;6.73;3.53;;;;;;;;;;10079499;29;20216;-78
2023/06/02 23:24:59;;;;;;;8.93;5.27;;;9.50;1.00;;;;;;10078799;29;20358;-78
2023/06/02 23:30:21;;;;;;;10.03;5.10;;;9.40;1.00;;;;;;10080206;29;20272;-77
2023/06/02 23:35:42;;;;;;;7.43;4.63;;;;;;;;;;10044320;29;20403;-75
2023/06/02 23:41:03;;;;;;;7.03;4.47;;;;;;;;;;10048263;29;20208;-77
2023/06/02 23:46:25;;;;;;;9.83;4.23;;;;;;;;;;10045024;29;20245;-78
2023/06/02 23:51:47;;;;;;;7.27;3.47;;;;;;;;;;10047429;29;20220;-78
2023/06/02 23:57:10;;;;;;;6.53;3.73;;;;;;;;;;10044532;29;20198;-76
